createdAt,value
2017-12-01T00:00:17.833Z,100382.73
2017-12-01T00:02:46.479Z,100387.03
2017-12-01T00:05:15.157Z,100382.83
2017-12-01T00:07:43.974Z,100385.01
2017-12-01T00:10:12.618Z,100374.89
2017-12-01T00:12:41.436Z,100377.05
2017-12-01T00:15:10.368Z,100374.95
2017-12-01T00:17:38.998Z,100377.55
2017-12-01T00:20:07.707Z,100379.67
2017-12-01T00:22:36.320Z,100379.36
2017-12-01T00:25:04.951Z,100384.03
2017-12-01T00:27:33.641Z,100381.94
2017-12-01T00:30:02.447Z,100382.41
2017-12-01T00:32:31.051Z,100395.59
2017-12-01T00:34:59.713Z,100395.19
2017-12-01T00:37:28.335Z,100405.39
2017-12-01T00:39:57.633Z,100405.86
2017-12-01T00:42:26.265Z,100402.95
2017-12-01T00:44:54.928Z,100408.91
2017-12-01T00:47:23.554Z,100415.68
2017-12-01T00:49:52.225Z,100409.80
2017-12-01T00:52:20.838Z,100413.62
2017-12-01T00:54:49.458Z,100417.42
2017-12-01T00:57:18.191Z,100418.70
2017-12-01T00:59:46.716Z,100419.13
2017-12-01T01:02:15.374Z,100422.50
2017-12-01T01:04:44.034Z,100421.65
2017-12-01T01:07:12.518Z,100425.89
2017-12-01T01:09:41.206Z,100425.05
2017-12-01T01:12:09.834Z,100427.19
2017-12-01T01:14:40.306Z,100424.20
2017-12-01T01:17:09.039Z,100423.78
2017-12-01T01:19:38.003Z,100423.78
2017-12-01T01:22:06.357Z,100430.94
2017-12-01T01:24:34.673Z,100430.11
2017-12-01T01:27:03.375Z,100432.20
2017-12-01T01:29:31.995Z,100436.01
2017-12-01T01:32:00.609Z,100443.61
2017-12-01T01:34:29.322Z,100449.55
2017-12-01T01:36:57.950Z,100455.46
2017-12-01T01:39:26.553Z,100460.13
2017-12-01T01:41:55.317Z,100458.03
2017-12-01T01:44:23.960Z,100467.75
2017-12-01T01:46:52.338Z,100463.97
2017-12-01T01:49:20.993Z,100472.83
2017-12-01T01:51:49.370Z,100470.28
2017-12-01T01:54:18.023Z,100464.80
2017-12-01T01:56:46.694Z,100469.43
2017-12-01T01:59:15.345Z,100470.67
2017-12-01T02:01:44.053Z,100480.77
2017-12-01T02:04:12.381Z,100484.58
2017-12-01T02:06:41.087Z,100482.48
2017-12-01T02:09:09.419Z,100484.17
2017-12-01T02:11:37.816Z,100489.23
2017-12-01T02:14:06.145Z,100490.06
2017-12-01T02:16:34.901Z,100489.19
2017-12-01T02:19:03.226Z,100492.98
2017-12-01T02:21:39.615Z,100494.25
2017-12-01T02:24:16.116Z,100498.45
2017-12-01T02:26:51.899Z,100496.75
2017-12-01T02:29:30.278Z,100498.83
2017-12-01T02:32:09.121Z,100500.08
2017-12-01T02:34:44.992Z,100494.58
2017-12-01T02:37:23.326Z,100502.16
2017-12-01T02:40:01.154Z,100503.42
2017-12-01T02:42:35.907Z,100508.91
2017-12-01T02:45:09.441Z,100508.48
2017-12-01T02:47:38.103Z,100516.48
2017-12-01T02:50:06.517Z,100519.03
2017-12-01T02:52:35.206Z,100518.59
2017-12-01T02:55:03.602Z,100522.83
2017-12-01T02:57:31.982Z,100526.20
2017-12-01T03:00:00.504Z,100525.35
2017-12-01T03:02:28.894Z,100527.88
2017-12-01T03:04:57.272Z,100532.52
2017-12-01T03:07:25.907Z,100534.19
2017-12-01T03:09:54.258Z,100538.83
2017-12-01T03:12:22.650Z,100539.24
2017-12-01T03:14:51.022Z,100536.72
2017-12-01T03:17:19.361Z,100536.30
2017-12-01T03:19:47.790Z,100537.11
2017-12-01T03:22:16.131Z,100532.44
2017-12-01T03:24:44.518Z,100542.16
2017-12-01T03:27:12.906Z,100542.98
2017-12-01T03:29:41.327Z,100546.40
2017-12-01T03:32:09.674Z,100556.94
2017-12-01T03:34:40.261Z,100559.09
2017-12-01T03:37:08.603Z,100569.22
2017-12-01T03:39:36.946Z,100561.22
2017-12-01T03:42:05.379Z,100569.22
2017-12-01T03:44:33.719Z,100567.13
2017-12-01T03:47:02.362Z,100568.81
2017-12-01T03:49:30.741Z,100573.91
2017-12-01T03:51:59.132Z,100581.09
2017-12-01T03:54:27.506Z,100579.84
2017-12-01T03:56:56.010Z,100582.80
2017-12-01T03:59:24.406Z,100589.97
2017-12-01T04:01:52.781Z,100591.64
2017-12-01T04:04:21.162Z,100593.80
2017-12-01T04:06:49.497Z,100598.02
2017-12-01T04:09:17.870Z,100600.55
2017-12-01T04:11:46.212Z,100607.75
2017-12-01T04:14:14.597Z,100606.05
2017-12-01T04:16:42.974Z,100606.47
2017-12-01T04:19:11.380Z,100606.88
2017-12-01T04:21:39.849Z,100609.41
2017-12-01T04:24:08.314Z,100608.15
2017-12-01T04:26:36.730Z,100608.56
2017-12-01T04:29:05.059Z,100609.83
2017-12-01T04:31:33.503Z,100622.09
2017-12-01T04:34:01.932Z,100628.02
2017-12-01T04:36:30.262Z,100631.38
2017-12-01T04:38:58.647Z,100635.19
2017-12-01T04:41:27.461Z,100634.33
2017-12-01T04:43:55.854Z,100636.87
2017-12-01T04:46:24.270Z,100635.19
2017-12-01T04:48:55.979Z,100634.75
2017-12-01T04:51:25.295Z,100633.50
2017-12-01T04:53:55.000Z,100627.59
2017-12-01T04:56:23.381Z,100634.73
2017-12-01T04:58:52.446Z,100643.19
2017-12-01T05:01:25.628Z,100643.20
2017-12-01T05:03:54.266Z,100641.51
2017-12-01T05:06:22.921Z,100643.20
2017-12-01T05:08:51.307Z,100653.36
2017-12-01T05:11:19.679Z,100649.95
2017-12-01T05:13:50.308Z,100655.00
2017-12-01T05:16:18.681Z,100654.97
2017-12-01T05:18:48.693Z,100660.89
2017-12-01T05:21:20.218Z,100663.00
2017-12-01T05:23:49.086Z,100671.02
2017-12-01T05:26:17.464Z,100668.89
2017-12-01T05:28:45.793Z,100671.41
2017-12-01T05:31:14.161Z,100671.01
2017-12-01T05:33:42.501Z,100681.53
2017-12-01T05:36:10.878Z,100679.82
2017-12-01T05:38:39.214Z,100686.16
2017-12-01T05:41:07.658Z,100687.87
2017-12-01T05:43:35.999Z,100687.01
2017-12-01T05:46:04.329Z,100690.39
2017-12-01T05:48:32.706Z,100689.11
2017-12-01T05:51:01.047Z,100693.34
2017-12-01T05:53:29.426Z,100691.66
2017-12-01T05:55:57.757Z,100687.41
2017-12-01T05:58:26.150Z,100688.25
2017-12-01T06:00:54.499Z,100687.83
2017-12-01T06:03:24.045Z,100694.59
2017-12-01T06:05:52.172Z,100693.32
2017-12-01T06:08:25.592Z,100694.16
2017-12-01T06:10:53.925Z,100690.78
2017-12-01T06:13:23.216Z,100698.41
2017-12-01T06:15:55.391Z,100695.85
2017-12-01T06:18:23.770Z,100707.28
2017-12-01T06:20:52.177Z,100707.29
2017-12-01T06:23:23.056Z,100704.35
2017-12-01T06:25:51.403Z,100713.22
2017-12-01T06:28:19.866Z,100710.28
2017-12-01T06:30:48.190Z,100713.25
2017-12-01T06:33:18.088Z,100714.10
2017-12-01T06:35:46.570Z,100714.63
2017-12-01T06:38:14.945Z,100720.94
2017-12-01T06:40:43.293Z,100732.80
2017-12-01T06:43:11.653Z,100729.89
2017-12-01T06:45:39.982Z,100737.97
2017-12-01T06:48:08.694Z,100736.27
2017-12-01T06:50:37.035Z,100739.66
2017-12-01T06:53:05.432Z,100744.69
2017-12-01T06:55:33.764Z,100751.84
2017-12-01T06:58:02.090Z,100756.94
2017-12-01T07:00:30.507Z,100762.41
2017-12-01T07:02:58.694Z,100756.50
2017-12-01T07:05:27.338Z,100759.45
2017-12-01T07:07:56.063Z,100764.91
2017-12-01T07:10:24.706Z,100769.98
2017-12-01T07:12:53.376Z,100765.78
2017-12-01T07:15:22.030Z,100776.34
2017-12-01T07:17:50.560Z,100784.38
2017-12-01T07:20:19.170Z,100783.11
2017-12-01T07:22:47.824Z,100789.86
2017-12-01T07:25:16.439Z,100790.30
2017-12-01T07:27:45.086Z,100796.20
2017-12-01T07:30:13.693Z,100797.53
2017-12-01T07:32:42.407Z,100800.03
2017-12-01T07:35:11.025Z,100808.95
2017-12-01T07:37:39.964Z,100808.09
2017-12-01T07:40:08.455Z,100813.17
2017-12-01T07:42:36.978Z,100822.05
2017-12-01T07:45:05.464Z,100827.11
2017-12-01T07:47:33.986Z,100828.36
2017-12-01T07:50:02.502Z,100828.80
2017-12-01T07:52:31.043Z,100833.42
2017-12-01T07:54:59.551Z,100838.05
2017-12-01T07:57:28.017Z,100846.89
2017-12-01T07:59:56.645Z,100849.39
2017-12-01T08:02:25.198Z,100856.57
2017-12-01T08:04:53.673Z,100859.95
2017-12-01T08:07:22.222Z,100862.06
2017-12-01T08:09:50.712Z,100866.31
2017-12-01T08:12:19.246Z,100869.67
2017-12-01T08:14:47.724Z,100873.48
2017-12-01T08:17:27.252Z,100876.39
2017-12-01T08:19:55.786Z,100884.87
2017-12-01T08:22:35.288Z,100885.23
2017-12-01T08:25:14.870Z,100886.95
2017-12-01T08:27:43.393Z,100885.63
2017-12-01T08:30:11.921Z,100892.38
2017-12-01T08:32:40.994Z,100894.89
2017-12-01T08:35:09.608Z,100896.13
2017-12-01T08:37:38.279Z,100896.53
2017-12-01T08:40:06.939Z,100903.74
2017-12-01T08:42:35.636Z,100906.29
2017-12-01T08:45:04.474Z,100908.01
2017-12-01T08:47:33.162Z,100910.09
2017-12-01T08:50:01.825Z,100915.58
2017-12-01T08:52:30.493Z,100922.35
2017-12-01T08:54:59.101Z,100922.77
2017-12-01T08:57:27.779Z,100927.84
2017-12-01T08:59:56.473Z,100926.16
2017-12-01T09:02:25.110Z,100929.92
2017-12-01T09:04:53.729Z,100930.75
2017-12-01T09:07:22.370Z,100936.27
2017-12-01T09:09:50.998Z,100944.20
2017-12-01T09:12:19.375Z,100945.09
2017-12-01T09:14:48.059Z,100953.08
2017-12-01T09:17:16.779Z,100965.79
2017-12-01T09:19:45.666Z,100963.64
2017-12-01T09:22:14.421Z,100972.11
2017-12-01T09:24:43.142Z,100974.21
2017-12-01T09:27:11.650Z,100973.36
2017-12-01T09:29:40.311Z,100969.94
2017-12-01T09:32:08.946Z,100970.84
2017-12-01T09:34:37.687Z,100969.52
2017-12-01T09:37:06.306Z,100969.91
2017-12-01T09:39:35.011Z,100979.66
2017-12-01T09:42:03.439Z,100981.30
2017-12-01T09:44:31.638Z,100980.88
2017-12-01T09:47:00.165Z,100984.70
2017-12-01T09:49:28.809Z,100987.61
2017-12-01T09:51:57.506Z,100984.66
2017-12-01T09:54:26.163Z,100987.16
2017-12-01T09:56:54.837Z,100989.61
2017-12-01T09:59:23.679Z,100996.83
2017-12-01T10:01:52.396Z,100994.27
2017-12-01T10:04:21.253Z,100995.53
2017-12-01T10:06:49.894Z,100995.12
2017-12-01T10:09:18.568Z,101005.68
2017-12-01T10:11:47.206Z,101001.00
2017-12-01T10:14:15.882Z,101007.77
2017-12-01T10:16:44.497Z,101007.33
2017-12-01T10:19:13.189Z,101001.80
2017-12-01T10:21:42.039Z,100997.11
2017-12-01T10:24:10.814Z,101005.58
2017-12-01T10:26:39.591Z,101008.52
2017-12-01T10:29:08.261Z,101013.58
2017-12-01T10:31:36.890Z,101014.41
2017-12-01T10:34:05.562Z,101016.94
2017-12-01T10:36:34.230Z,101016.92
2017-12-01T10:39:02.883Z,101018.16
2017-12-01T10:41:31.501Z,101019.38
2017-12-01T10:44:00.162Z,101013.42
2017-12-01T10:46:28.644Z,101018.88
2017-12-01T10:48:57.339Z,101019.27
2017-12-01T10:51:26.002Z,101024.72
2017-12-01T10:53:54.690Z,101027.67
2017-12-01T10:56:23.361Z,101025.95
2017-12-01T10:58:51.920Z,101029.30
2017-12-01T11:01:20.589Z,101034.30
2017-12-01T11:03:49.214Z,101034.27
2017-12-01T11:06:17.867Z,101035.10
2017-12-01T11:08:46.533Z,101041.83
2017-12-01T11:11:15.146Z,101035.03
2017-12-01T11:13:43.818Z,101040.50
2017-12-01T11:16:12.474Z,101046.82
2017-12-01T11:18:41.127Z,101049.35
2017-12-01T11:21:09.795Z,101051.00
2017-12-01T11:23:38.677Z,101045.05
2017-12-01T11:26:07.424Z,101041.69
2017-12-01T11:28:36.037Z,101039.95
2017-12-01T11:31:04.654Z,101045.02
2017-12-01T11:33:33.321Z,101048.39
2017-12-01T11:36:01.941Z,101053.44
2017-12-01T11:38:30.555Z,101052.57
2017-12-01T11:40:59.209Z,101054.20
2017-12-01T11:43:27.822Z,101057.16
2017-12-01T11:45:56.478Z,101058.79
2017-12-01T11:48:25.112Z,101061.75
2017-12-01T11:50:53.786Z,101060.92
2017-12-01T11:53:25.679Z,101070.66
2017-12-01T11:55:54.044Z,101065.52
2017-12-01T11:58:22.657Z,101071.44
2017-12-01T12:01:01.608Z,101072.69
2017-12-01T12:03:30.330Z,101070.98
2017-12-01T12:05:58.768Z,101072.22
2017-12-01T12:08:27.122Z,101077.28
2017-12-01T12:10:55.785Z,101084.46
2017-12-01T12:13:32.949Z,101072.59
2017-12-01T12:16:01.386Z,101081.91
2017-12-01T12:18:46.349Z,101083.16
2017-12-01T12:21:16.042Z,101083.95
2017-12-01T12:23:44.377Z,101079.69
2017-12-01T12:26:12.704Z,101082.60
2017-12-01T12:28:41.421Z,101083.04
2017-12-01T12:31:18.777Z,101087.26
2017-12-01T12:33:47.482Z,101082.16
2017-12-01T12:36:15.861Z,101087.63
2017-12-01T12:38:44.530Z,101091.84
2017-12-01T12:41:19.115Z,101092.69
2017-12-01T12:43:49.976Z,101093.94
2017-12-01T12:46:21.356Z,101090.94
2017-12-01T12:48:52.798Z,101095.57
2017-12-01T12:51:26.339Z,101095.16
2017-12-01T12:54:02.166Z,101102.32
2017-12-01T12:56:32.849Z,101102.73
2017-12-01T12:59:01.239Z,101097.63
2017-12-01T13:01:29.494Z,101106.48
2017-12-01T13:03:58.033Z,101112.38
2017-12-01T13:06:26.528Z,101111.08
2017-12-01T13:08:55.092Z,101103.86
2017-12-01T13:11:23.478Z,101107.24
2017-12-01T13:13:51.838Z,101110.59
2017-12-01T13:16:20.264Z,101113.98
2017-12-01T13:18:48.987Z,101112.67
2017-12-01T13:21:17.349Z,101121.09
2017-12-01T13:23:45.709Z,101113.44
2017-12-01T13:26:14.415Z,101117.25
2017-12-01T13:28:43.320Z,101125.30
2017-12-01T13:31:11.698Z,101128.20
2017-12-01T13:33:40.373Z,101129.84
2017-12-01T13:36:08.754Z,101138.31
2017-12-01T13:38:37.445Z,101137.42
2017-12-01T13:41:05.762Z,101141.23
2017-12-01T13:43:34.084Z,101142.08
2017-12-01T13:46:02.761Z,101146.27
2017-12-01T13:48:31.082Z,101156.84
2017-12-01T13:50:59.774Z,101158.52
2017-12-01T13:53:28.573Z,101151.73
2017-12-01T13:55:56.803Z,101158.05
2017-12-01T13:58:25.569Z,101163.14
2017-12-01T14:00:53.897Z,101160.98
2017-12-01T14:03:27.243Z,101168.20
2017-12-01T14:05:55.934Z,101170.75
2017-12-01T14:08:24.614Z,101174.98
2017-12-01T14:10:53.221Z,101175.82
2017-12-01T14:13:24.886Z,101187.70
2017-12-01T14:15:53.489Z,101190.71
2017-12-01T14:18:22.094Z,101197.49
2017-12-01T14:20:50.747Z,101200.86
2017-12-01T14:23:22.969Z,101206.77
2017-12-01T14:25:51.625Z,101215.27
2017-12-01T14:28:20.240Z,101223.33
2017-12-01T14:30:48.850Z,101222.89
2017-12-01T14:33:17.506Z,101227.95
2017-12-01T14:35:46.118Z,101233.48
2017-12-01T14:38:14.733Z,101232.20
2017-12-01T14:40:43.389Z,101236.48
2017-12-01T14:43:11.986Z,101241.53
2017-12-01T14:45:40.629Z,101240.70
2017-12-01T14:48:09.254Z,101241.94
2017-12-01T14:50:39.061Z,101248.72
2017-12-01T14:53:07.666Z,101252.95
2017-12-01T14:55:36.323Z,101260.62
2017-12-01T14:58:04.942Z,101261.03
2017-12-01T15:00:33.548Z,101263.99
2017-12-01T15:03:02.194Z,101268.63
2017-12-01T15:05:30.802Z,101276.23
2017-12-01T15:07:59.463Z,101274.97
2017-12-01T15:10:28.061Z,101281.76
2017-12-01T15:12:56.737Z,101282.17
2017-12-01T15:15:25.346Z,101282.61
2017-12-01T15:17:53.955Z,101285.60
2017-12-01T15:20:22.608Z,101287.27
2017-12-01T15:22:51.205Z,101296.16
2017-12-01T15:25:19.858Z,101288.97
2017-12-01T15:27:48.485Z,101288.53
2017-12-01T15:30:17.174Z,101293.19
2017-12-01T15:32:45.696Z,101293.61
2017-12-01T15:35:14.307Z,101309.30
2017-12-01T15:37:42.954Z,101311.00
2017-12-01T15:40:11.429Z,101316.95
2017-12-01T15:42:40.030Z,101322.88
2017-12-01T15:45:08.413Z,101322.89
2017-12-01T15:47:36.938Z,101328.39
2017-12-01T15:50:05.470Z,101332.23
2017-12-01T15:52:33.955Z,101331.38
2017-12-01T15:55:02.663Z,101339.88
2017-12-01T15:57:31.129Z,101339.46
2017-12-01T16:00:00.126Z,101350.05
2017-12-01T16:02:28.634Z,101344.12
2017-12-01T16:04:56.909Z,101357.70
2017-12-01T16:07:25.273Z,101353.48
2017-12-01T16:09:53.454Z,101364.52
2017-12-01T16:12:21.677Z,101359.09
2017-12-01T16:14:50.182Z,101367.98
2017-12-01T16:17:18.592Z,101367.14
2017-12-01T16:19:47.237Z,101374.80
2017-12-01T16:22:15.626Z,101368.00
2017-12-01T16:24:44.344Z,101374.80
2017-12-01T16:27:12.993Z,101372.66
2017-12-01T16:29:41.374Z,101373.54
2017-12-01T16:32:10.011Z,101378.17
2017-12-01T16:34:38.654Z,101376.53
2017-12-01T16:37:07.046Z,101382.45
2017-12-01T16:39:35.662Z,101387.12
2017-12-01T16:42:04.304Z,101387.53
2017-12-01T16:44:32.971Z,101388.38
2017-12-01T16:47:01.877Z,101395.59
2017-12-01T16:49:30.229Z,101390.08
2017-12-01T16:51:58.550Z,101396.03
2017-12-01T16:54:26.901Z,101390.98
2017-12-01T16:56:55.222Z,101389.27
2017-12-01T16:59:23.610Z,101391.39
2017-12-01T17:01:52.270Z,101393.11
2017-12-01T17:04:20.601Z,101394.39
2017-12-01T17:06:48.980Z,101394.84
2017-12-01T17:09:17.442Z,101400.31
2017-12-01T17:11:45.866Z,101402.45
2017-12-01T17:14:14.221Z,101401.21
2017-12-01T17:16:42.597Z,101399.53
2017-12-01T17:19:10.942Z,101400.84
2017-12-01T17:21:39.390Z,101403.84
2017-12-01T17:24:07.749Z,101409.36
2017-12-01T17:26:36.569Z,101411.10
2017-12-01T17:29:05.226Z,101409.03
2017-12-01T17:31:33.617Z,101415.81
2017-12-01T17:34:01.986Z,101419.27
2017-12-01T17:36:30.630Z,101418.89
2017-12-01T17:38:58.953Z,101422.30
2017-12-01T17:41:27.363Z,101429.98
2017-12-01T17:43:56.054Z,101428.31
2017-12-01T17:46:24.738Z,101432.17
2017-12-01T17:48:53.109Z,101433.05
2017-12-01T17:51:21.758Z,101435.62
2017-12-01T17:53:50.122Z,101440.78
2017-12-01T17:56:18.454Z,101440.35
2017-12-01T17:58:46.823Z,101442.53
2017-12-01T18:01:15.157Z,101450.58
2017-12-01T18:03:43.535Z,101451.05
2017-12-01T18:06:12.465Z,101468.02
2017-12-01T18:08:40.824Z,101465.92
2017-12-01T18:11:09.146Z,101466.38
2017-12-01T18:13:37.854Z,101475.27
2017-12-01T18:16:06.278Z,101480.38
2017-12-01T18:18:34.657Z,101485.50
2017-12-01T18:21:03.314Z,101487.61
2017-12-01T18:23:31.682Z,101487.64
2017-12-01T18:26:00.329Z,101498.65
2017-12-01T18:28:29.027Z,101495.26
2017-12-01T18:30:57.350Z,101496.56
2017-12-01T18:33:28.353Z,101500.39
2017-12-01T18:35:56.746Z,101503.36
2017-12-01T18:38:25.078Z,101507.98
2017-12-01T18:40:53.449Z,101505.03
2017-12-01T18:43:25.597Z,101506.73
2017-12-01T18:45:54.281Z,101514.35
2017-12-01T18:48:22.751Z,101510.98
2017-12-01T18:50:51.407Z,101517.34
2017-12-01T18:53:25.341Z,101521.99
2017-12-01T18:55:53.778Z,101519.05
2017-12-01T18:58:22.498Z,101516.09
2017-12-01T19:00:50.890Z,101519.47
2017-12-01T19:03:23.122Z,101521.17
2017-12-01T19:05:51.547Z,101517.77
2017-12-01T19:08:19.904Z,101527.08
2017-12-01T19:10:48.589Z,101524.97
2017-12-01T19:13:17.292Z,101530.06
2017-12-01T19:15:45.662Z,101529.65
2017-12-01T19:18:13.986Z,101528.36
2017-12-01T19:20:42.202Z,101531.75
2017-12-01T19:23:10.569Z,101536.83
2017-12-01T19:25:39.075Z,101538.54
2017-12-01T19:28:07.429Z,101537.28
2017-12-01T19:30:35.616Z,101544.03
2017-12-01T19:33:03.991Z,101543.19
2017-12-01T19:35:32.316Z,101555.45
2017-12-01T19:38:00.700Z,101554.20
2017-12-01T19:40:29.017Z,101561.82
2017-12-01T19:42:57.381Z,101561.80
2017-12-01T19:45:25.742Z,101564.34
2017-12-01T19:47:54.065Z,101561.81
2017-12-01T19:50:22.755Z,101561.83
2017-12-01T19:52:50.930Z,101567.75
2017-12-01T19:55:19.293Z,101574.06
2017-12-01T19:57:47.945Z,101574.06
2017-12-01T20:00:16.378Z,101577.87
2017-12-01T20:02:45.033Z,101577.45
2017-12-01T20:05:13.694Z,101578.73
2017-12-01T20:07:42.102Z,101583.38
2017-12-01T20:10:10.434Z,101587.58
2017-12-01T20:12:39.082Z,101589.70
2017-12-01T20:15:07.458Z,101590.55
2017-12-01T20:17:35.813Z,101593.94
2017-12-01T20:20:04.239Z,101599.82
2017-12-01T20:22:32.559Z,101603.20
2017-12-01T20:25:00.889Z,101596.88
2017-12-01T20:27:29.274Z,101597.73
2017-12-01T20:29:57.910Z,101601.11
2017-12-01T20:32:26.236Z,101603.22
2017-12-01T20:34:54.658Z,101605.30
2017-12-01T20:37:23.280Z,101612.48
2017-12-01T20:39:51.606Z,101617.55
2017-12-01T20:42:19.980Z,101615.02
2017-12-01T20:44:48.666Z,101627.69
2017-12-01T20:47:17.313Z,101625.16
2017-12-01T20:49:46.343Z,101628.95
2017-12-01T20:52:14.696Z,101629.38
2017-12-01T20:54:43.478Z,101630.22
2017-12-01T20:57:12.345Z,101631.06
2017-12-01T20:59:40.701Z,101640.78
2017-12-01T21:02:09.086Z,101641.62
2017-12-01T21:04:37.738Z,101645.00
2017-12-01T21:07:06.096Z,101641.20
2017-12-01T21:09:34.713Z,101647.95
2017-12-01T21:12:03.467Z,101645.84
2017-12-01T21:14:32.121Z,101636.97
2017-12-01T21:17:00.816Z,101645.00
2017-12-01T21:19:29.145Z,101645.42
2017-12-01T21:21:57.839Z,101645.42
2017-12-01T21:24:26.544Z,101648.41
2017-12-01T21:26:55.219Z,101656.00
2017-12-01T21:29:23.565Z,101658.53
2017-12-01T21:31:52.278Z,101659.38
2017-12-01T21:34:20.628Z,101656.42
2017-12-01T21:36:48.997Z,101655.16
2017-12-01T21:39:17.327Z,101658.11
2017-12-01T21:41:45.957Z,101649.27
2017-12-01T21:44:14.634Z,101646.31
2017-12-01T21:46:43.251Z,101650.53
2017-12-01T21:49:11.913Z,101650.11
2017-12-01T21:51:40.457Z,101651.80
2017-12-01T21:54:09.092Z,101653.06
2017-12-01T21:56:37.626Z,101661.51
2017-12-01T21:59:06.275Z,101665.30
2017-12-01T22:01:34.922Z,101671.22
2017-12-01T22:04:03.537Z,101678.43
2017-12-01T22:06:32.061Z,101686.88
2017-12-01T22:09:00.727Z,101684.34
2017-12-01T22:11:29.381Z,101687.30
2017-12-01T22:13:57.914Z,101688.56
2017-12-01T22:16:26.467Z,101688.98
2017-12-01T22:18:54.946Z,101688.14
2017-12-01T22:21:23.457Z,101693.63
2017-12-01T22:23:51.950Z,101696.16
2017-12-01T22:26:20.619Z,101700.39
2017-12-01T22:28:49.090Z,101697.03
2017-12-01T22:31:17.741Z,101699.56
2017-12-01T22:33:46.387Z,101702.09
2017-12-01T22:36:14.717Z,101699.56
2017-12-01T22:38:43.420Z,101699.56
2017-12-01T22:41:12.050Z,101699.56
2017-12-01T22:43:40.729Z,101702.09
2017-12-01T22:46:09.393Z,101702.09
2017-12-01T22:48:38.033Z,101700.82
2017-12-01T22:51:06.681Z,101700.41
2017-12-01T22:53:35.333Z,101704.23
2017-12-01T22:56:04.002Z,101697.89
2017-12-01T22:58:32.635Z,101701.27
2017-12-01T23:01:01.270Z,101705.07
2017-12-01T23:03:29.666Z,101705.07
2017-12-01T23:05:58.003Z,101707.61
2017-12-01T23:08:26.699Z,101711.84
2017-12-01T23:10:55.393Z,101713.95
2017-12-01T23:13:24.811Z,101714.36
2017-12-01T23:15:53.758Z,101716.48
2017-12-01T23:18:22.390Z,101712.25
2017-12-01T23:20:51.070Z,101715.63
2017-12-01T23:23:19.763Z,101714.78
2017-12-01T23:25:48.426Z,101719.88
2017-12-01T23:28:17.042Z,101729.19
2017-12-01T23:30:45.671Z,101735.09
2017-12-01T23:33:14.322Z,101736.36
2017-12-01T23:35:42.950Z,101735.94
2017-12-01T23:38:11.628Z,101736.36
2017-12-01T23:40:40.275Z,101739.32
2017-12-01T23:43:08.886Z,101738.47
2017-12-01T23:45:37.578Z,101739.73
2017-12-01T23:48:06.396Z,101743.11
2017-12-01T23:50:35.030Z,101740.58
2017-12-01T23:53:03.703Z,101741.43
2017-12-01T23:55:32.046Z,101736.36
2017-12-01T23:58:00.790Z,101741.42
